Aérodrome :
LOGIN :

S'inscrire | Disclaimer

   EN    FR    IT 

 










Légende :    VFR   VFR Marginal   IFR   IFR Intensif   IFR Très Intensif
Visi : 
Plafond : 
>= 8 km
>= 3000ft
5 à 8 km
1000 à 3000 ft
1500m à 5 km
500 à 1000 ft
800 à 1500m
200 à 500 ft
< 800m
< 200 ft
Symboles :   Orages  Brouillard  Fortes neiges  Fortes précipitations  Vent > 20 kt
SIGMETs :   Divers  Orages  Givrage  Turbulence  Onde Orograph.  Cendres Volcan.






- Altitude de l'aérodrome : 76 ft
- Code IATA : KID


ESMK - Kristianstad

DERNIER METAR :
  • 230150Z AUTO 11010KT 5000 BR OVC004/// 07/06 Q1015

METARs EXPIRÉS :
  • 230120Z AUTO 12008KT 8000 BR OVC006/// 07/06 Q1015
  • 230050Z AUTO 11009KT 8000 BR OVC007/// 07/06 Q1015
  • 230020Z AUTO 12008KT 7000 BR OVC007/// 07/06 Q1015
  • 222350Z AUTO 12007KT 8000 BR OVC007/// 07/06 Q1015
  • 222320Z AUTO 11008KT 8000 BR OVC009/// 07/06 Q1015
  • 222250Z AUTO 11007KT 8000 BR OVC009/// 08/06 Q1015

Prévision TAF périmée.



MET'MAP, la Météo Aéronautique d'un coup d'oeil ! - Copyright ORBIFLY Décembre 2007 - Disclaimer

ORBIFLY MET'MAP TEAM :

Programmation & Développement : Alexandra Zaïnal
Conception & Développement : Baudouin d'Aumeries
Co-Programmation & Développement : Marc-Olivier Méhu
Soutien technique & logistique : Manuel Goepfert

Contact : metmap@orbifly.com




SOURCES & CREDITS :

   NOAA